createdAt,value
2023-04-11T00:00:55.901Z,132.06
2023-04-11T00:01:55.988Z,130.27
2023-04-11T00:02:56.088Z,133.71
2023-04-11T00:03:57.034Z,133.81
2023-04-11T00:04:55.939Z,133.14
2023-04-11T00:05:55.869Z,132.53
2023-04-11T00:06:55.867Z,133.01
2023-04-11T00:07:55.860Z,131.59
2023-04-11T00:08:55.991Z,128.93
2023-04-11T00:09:55.848Z,132.14
2023-04-11T00:10:55.841Z,133.46
2023-04-11T00:11:55.834Z,130.24
2023-04-11T00:12:55.828Z,131.47
2023-04-11T00:13:55.824Z,132.28
2023-04-11T00:14:55.837Z,131.28
2023-04-11T00:15:56.004Z,131.46
2023-04-11T00:16:55.858Z,129.33
2023-04-11T00:17:55.858Z,130.76
2023-04-11T00:18:55.973Z,128.51
2023-04-11T00:19:55.836Z,129.80
2023-04-11T00:20:55.890Z,129.77
2023-04-11T00:21:55.861Z,129.33
2023-04-11T00:22:55.856Z,129.44
2023-04-11T00:23:55.836Z,129.78
2023-04-11T00:24:55.841Z,128.71
2023-04-11T00:25:55.828Z,128.54
2023-04-11T00:26:55.829Z,129.33
2023-04-11T00:27:55.800Z,129.78
2023-04-11T00:28:56.225Z,130.27
2023-04-11T00:29:55.792Z,128.89
2023-04-11T00:30:55.807Z,128.34
2023-04-11T00:31:55.819Z,126.94
2023-04-11T00:32:55.817Z,128.46
2023-04-11T00:33:55.775Z,127.04
2023-04-11T00:34:55.758Z,129.52
2023-04-11T00:35:55.799Z,128.49
2023-04-11T00:36:55.774Z,128.39
2023-04-11T00:37:55.744Z,125.75
2023-04-11T00:38:56.006Z,127.59
2023-04-11T00:39:55.746Z,126.99
2023-04-11T00:40:55.751Z,126.46
2023-04-11T00:41:55.749Z,124.10
2023-04-11T00:42:55.756Z,124.15
2023-04-11T00:43:55.754Z,123.32
2023-04-11T00:44:55.763Z,125.81
2023-04-11T00:45:55.823Z,122.49
2023-04-11T00:46:55.821Z,127.91
2023-04-11T00:47:55.919Z,123.81
2023-04-11T00:48:56.147Z,122.73
2023-04-11T00:49:55.957Z,124.48
2023-04-11T00:50:55.935Z,124.72
2023-04-11T00:51:55.939Z,124.73
2023-04-11T00:52:55.911Z,125.37
2023-04-11T00:53:55.932Z,126.06
2023-04-11T00:54:55.907Z,122.43
2023-04-11T00:55:55.911Z,124.72
2023-04-11T00:56:55.904Z,123.10
2023-04-11T00:57:55.898Z,125.18
2023-04-11T00:58:56.115Z,122.06
2023-04-11T00:59:55.903Z,123.81
2023-04-11T01:00:55.956Z,120.31
2023-04-11T01:01:55.983Z,124.33
2023-04-11T01:02:55.943Z,121.26
2023-04-11T01:03:56.061Z,124.06
2023-04-11T01:04:55.857Z,122.20
2023-04-11T01:05:55.826Z,121.46
2023-04-11T01:06:55.825Z,120.59
2023-04-11T01:07:55.802Z,121.10
2023-04-11T01:08:55.908Z,119.47
2023-04-11T01:09:55.770Z,118.26
2023-04-11T01:10:55.752Z,117.76
2023-04-11T01:11:55.750Z,118.19
2023-04-11T01:12:55.785Z,117.63
2023-04-11T01:13:55.740Z,120.47
2023-04-11T01:14:55.701Z,118.56
2023-04-11T01:15:55.698Z,118.67
2023-04-11T01:16:55.747Z,117.87
2023-04-11T01:17:55.805Z,117.74
2023-04-11T01:18:55.851Z,117.25
2023-04-11T01:19:55.657Z,117.37
2023-04-11T01:20:55.631Z,117.53
2023-04-11T01:21:55.646Z,117.79
2023-04-11T01:22:55.620Z,117.77
2023-04-11T01:23:55.608Z,117.81
2023-04-11T01:24:55.586Z,118.09
2023-04-11T01:25:55.607Z,115.13
2023-04-11T01:26:55.565Z,117.55
2023-04-11T01:27:55.553Z,114.97
2023-04-11T01:28:55.701Z,117.83
2023-04-11T01:29:55.511Z,114.81
2023-04-11T01:30:55.556Z,115.91
2023-04-11T01:31:55.484Z,113.00
2023-04-11T01:32:55.493Z,112.18
2023-04-11T01:33:55.450Z,113.71
2023-04-11T01:34:55.438Z,112.78
2023-04-11T01:35:55.471Z,115.10
2023-04-11T01:36:55.412Z,111.83
2023-04-11T01:37:55.412Z,112.30
2023-04-11T01:38:55.771Z,111.57
2023-04-11T01:39:55.373Z,109.85
2023-04-11T01:40:55.344Z,109.59
2023-04-11T01:41:55.346Z,107.94
2023-04-11T01:42:55.326Z,110.35
2023-04-11T01:43:55.320Z,110.12
2023-04-11T01:44:55.292Z,112.95
2023-04-11T01:45:55.279Z,109.15
2023-04-11T01:46:55.264Z,109.03
2023-04-11T01:47:55.310Z,109.41
2023-04-11T01:48:55.598Z,106.59
2023-04-11T01:49:55.219Z,106.26
2023-04-11T01:50:55.197Z,102.33
2023-04-11T01:51:55.189Z,103.95
2023-04-11T01:52:55.189Z,105.19
2023-04-11T01:53:55.157Z,104.61
2023-04-11T01:54:55.161Z,104.90
2023-04-11T01:55:55.124Z,105.22
2023-04-11T01:56:55.130Z,105.49
2023-04-11T01:57:55.097Z,106.73
2023-04-11T01:58:55.269Z,106.59
2023-04-11T01:59:55.076Z,103.49
2023-04-11T02:00:55.063Z,103.72
2023-04-11T02:01:55.112Z,104.69
2023-04-11T02:02:55.124Z,105.85
2023-04-11T02:03:55.153Z,106.18
2023-04-11T02:04:55.002Z,105.33
2023-04-11T02:05:54.981Z,108.18
2023-04-11T02:06:55.000Z,105.22
2023-04-11T02:07:54.989Z,106.69
2023-04-11T02:08:55.250Z,107.20
2023-04-11T02:09:54.913Z,104.36
2023-04-11T02:10:54.910Z,99.52
2023-04-11T02:11:54.887Z,100.62
2023-04-11T02:12:54.874Z,102.60
2023-04-11T02:13:54.863Z,104.29
2023-04-11T02:14:54.825Z,103.05
2023-04-11T02:15:54.842Z,103.76
2023-04-11T02:16:54.807Z,102.72
2023-04-11T02:17:54.892Z,99.20
2023-04-11T02:18:55.031Z,98.47
2023-04-11T02:19:54.754Z,103.88
2023-04-11T02:20:54.727Z,101.19
2023-04-11T02:21:54.721Z,101.26
2023-04-11T02:22:54.690Z,101.13
2023-04-11T02:23:54.673Z,101.82
2023-04-11T02:24:54.660Z,102.03
2023-04-11T02:25:54.640Z,101.82
2023-04-11T02:26:54.612Z,101.79
2023-04-11T02:27:54.613Z,100.91
2023-04-11T02:28:54.721Z,107.38
2023-04-11T02:29:54.568Z,104.75
2023-04-11T02:30:54.610Z,102.61
2023-04-11T02:31:54.595Z,100.77
2023-04-11T02:32:54.579Z,102.14
2023-04-11T02:33:54.519Z,99.14
2023-04-11T02:34:54.503Z,101.35
2023-04-11T02:35:54.527Z,96.23
2023-04-11T02:36:54.472Z,97.30
2023-04-11T02:37:54.466Z,97.69
2023-04-11T02:38:54.713Z,97.32
2023-04-11T02:39:54.423Z,100.15
2023-04-11T02:40:54.410Z,98.65
2023-04-11T02:41:54.400Z,96.42
2023-04-11T02:42:54.392Z,96.67
2023-04-11T02:43:54.408Z,96.95
2023-04-11T02:44:54.356Z,96.55
2023-04-11T02:46:02.070Z,99.33
2023-04-11T02:46:55.384Z,96.56
2023-04-11T02:47:54.381Z,97.10
2023-04-11T02:48:54.535Z,98.28
2023-04-11T02:49:54.331Z,97.74
2023-04-11T02:50:54.336Z,97.75
2023-04-11T02:51:54.297Z,97.28
2023-04-11T02:52:54.284Z,94.32
2023-04-11T02:53:54.268Z,98.46
2023-04-11T02:54:54.236Z,100.22
2023-04-11T02:55:54.226Z,100.13
2023-04-11T02:56:54.203Z,96.46
2023-04-11T02:57:54.202Z,96.32
2023-04-11T02:58:54.413Z,97.20
2023-04-11T02:59:54.152Z,97.01
2023-04-11T03:00:54.145Z,95.80
2023-04-11T03:01:54.185Z,99.51
2023-04-11T03:02:54.219Z,96.26
2023-04-11T03:03:54.143Z,96.51
2023-04-11T03:04:54.051Z,97.70
2023-04-11T03:05:54.071Z,100.20
2023-04-11T03:06:54.050Z,97.77
2023-04-11T03:07:54.003Z,96.06
2023-04-11T03:08:54.294Z,96.51
2023-04-11T03:09:53.978Z,95.86
2023-04-11T03:10:53.952Z,94.82
2023-04-11T03:11:53.943Z,96.76
2023-04-11T03:12:53.929Z,96.02
2023-04-11T03:13:54.005Z,90.84
2023-04-11T03:14:53.896Z,94.42
2023-04-11T03:15:53.912Z,92.08
2023-04-11T03:16:53.864Z,90.19
2023-04-11T03:17:53.882Z,93.06
2023-04-11T03:18:54.119Z,92.20
2023-04-11T03:19:53.852Z,93.29
2023-04-11T03:20:53.802Z,93.84
2023-04-11T03:21:53.797Z,91.79
2023-04-11T03:22:53.795Z,92.38
2023-04-11T03:23:53.773Z,92.47
2023-04-11T03:24:53.757Z,96.41
2023-04-11T03:25:53.742Z,93.36
2023-04-11T03:26:53.736Z,95.36
2023-04-11T03:27:53.718Z,94.23
2023-04-11T03:28:54.034Z,93.95
2023-04-11T03:29:53.718Z,94.36
2023-04-11T03:30:53.740Z,94.17
2023-04-11T03:31:53.694Z,92.59
2023-04-11T03:32:53.733Z,94.69
2023-04-11T03:33:53.702Z,93.01
2023-04-11T03:34:53.683Z,89.93
2023-04-11T03:35:53.736Z,91.64
2023-04-11T03:36:53.695Z,91.49
2023-04-11T03:37:53.664Z,91.96
2023-04-11T03:38:53.781Z,92.05
2023-04-11T03:39:53.659Z,90.70
2023-04-11T03:40:53.668Z,89.55
2023-04-11T03:41:53.666Z,91.21
2023-04-11T03:42:53.666Z,90.33
2023-04-11T03:43:53.683Z,88.51
2023-04-11T03:44:53.667Z,93.61
2023-04-11T03:45:53.750Z,87.03
2023-04-11T03:46:53.788Z,90.90
2023-04-11T03:47:53.691Z,91.79
2023-04-11T03:48:53.707Z,93.09
2023-04-11T03:49:53.661Z,81.61
2023-04-11T03:50:53.669Z,78.40
2023-04-11T03:51:53.699Z,88.06
2023-04-11T03:52:53.660Z,85.99
2023-04-11T03:53:53.682Z,87.76
2023-04-11T03:54:53.685Z,87.26
2023-04-11T03:55:53.664Z,83.40
2023-04-11T03:56:53.681Z,85.24
2023-04-11T03:57:53.660Z,87.36
2023-04-11T03:58:53.815Z,85.77
2023-04-11T03:59:53.656Z,83.43
2023-04-11T04:00:53.661Z,87.19
2023-04-11T04:01:53.692Z,89.69
2023-04-11T04:02:53.799Z,86.49
2023-04-11T04:03:54.097Z,88.74
2023-04-11T04:04:53.717Z,88.89
2023-04-11T04:05:53.651Z,87.61
2023-04-11T04:06:53.635Z,89.18
2023-04-11T04:07:55.807Z,90.61
2023-04-11T04:08:53.628Z,87.29
2023-04-11T04:09:53.595Z,89.19
2023-04-11T04:10:53.588Z,89.85
2023-04-11T04:11:53.582Z,88.32
2023-04-11T04:12:53.581Z,88.16
2023-04-11T04:13:53.800Z,88.48
2023-04-11T04:14:53.586Z,90.37
2023-04-11T04:15:53.568Z,93.22
2023-04-11T04:16:53.652Z,92.57
2023-04-11T04:17:53.592Z,92.67
2023-04-11T04:18:53.556Z,89.22
2023-04-11T04:19:53.552Z,90.83
2023-04-11T04:20:53.555Z,87.18
2023-04-11T04:21:53.544Z,87.84
2023-04-11T04:22:53.551Z,88.08
2023-04-11T04:23:53.780Z,85.27
2023-04-11T04:24:53.532Z,84.45
2023-04-11T04:25:53.533Z,89.97
2023-04-11T04:26:53.530Z,89.03
2023-04-11T04:27:53.538Z,88.31
2023-04-11T04:28:53.530Z,86.67
2023-04-11T04:30:03.603Z,89.47
2023-04-11T04:30:54.623Z,89.67
2023-04-11T04:31:53.570Z,88.56
2023-04-11T04:32:53.539Z,89.60
2023-04-11T04:33:53.686Z,90.13
2023-04-11T04:34:53.517Z,90.18
2023-04-11T04:35:53.570Z,91.27
2023-04-11T04:36:53.526Z,93.96
2023-04-11T04:37:53.512Z,89.73
2023-04-11T04:38:53.521Z,90.15
2023-04-11T04:39:53.522Z,91.32
2023-04-11T04:40:53.521Z,89.73
2023-04-11T04:41:53.503Z,90.24
2023-04-11T04:42:53.504Z,90.16
2023-04-11T04:43:53.605Z,91.04
2023-04-11T04:44:53.491Z,93.36
2023-04-11T04:45:53.514Z,89.68
2023-04-11T04:46:53.518Z,90.56
2023-04-11T04:47:53.519Z,89.81
2023-04-11T04:48:53.497Z,90.95
2023-04-11T04:49:53.485Z,91.38
2023-04-11T04:50:53.519Z,92.43
2023-04-11T04:51:53.495Z,94.47
2023-04-11T04:52:53.499Z,93.94
2023-04-11T04:53:53.580Z,89.39
2023-04-11T04:54:53.546Z,85.25
2023-04-11T04:55:53.519Z,91.12
2023-04-11T04:56:53.521Z,89.06
2023-04-11T04:57:53.531Z,89.14
2023-04-11T04:58:53.541Z,89.19
2023-04-11T04:59:53.551Z,89.21
2023-04-11T05:00:53.605Z,90.00
2023-04-11T05:01:53.750Z,91.43
2023-04-11T05:02:53.677Z,91.87
2023-04-11T05:03:53.651Z,89.97
2023-04-11T05:04:53.557Z,88.34
2023-04-11T05:05:53.557Z,92.43
2023-04-11T05:06:53.566Z,91.16
2023-04-11T05:07:53.562Z,84.49
2023-04-11T05:08:53.574Z,92.56
2023-04-11T05:09:53.595Z,94.76
2023-04-11T05:10:53.578Z,94.99
2023-04-11T05:11:53.609Z,92.26
2023-04-11T05:12:53.590Z,91.51
2023-04-11T05:13:53.910Z,90.21
2023-04-11T05:14:53.602Z,85.73
2023-04-11T05:15:53.595Z,91.39
2023-04-11T05:16:53.649Z,93.78
2023-04-11T05:17:53.639Z,89.53
2023-04-11T05:18:53.618Z,89.54
2023-04-11T05:19:53.608Z,89.59
2023-04-11T05:20:53.610Z,90.19
2023-04-11T05:21:53.606Z,86.05
2023-04-11T05:22:53.640Z,86.59
2023-04-11T05:23:53.902Z,91.30
2023-04-11T05:24:53.614Z,88.47
2023-04-11T05:25:53.620Z,89.33
2023-04-11T05:26:53.616Z,86.71
2023-04-11T05:27:53.617Z,89.87
2023-04-11T05:28:53.650Z,93.02
2023-04-11T05:29:53.622Z,93.07
2023-04-11T05:30:53.660Z,92.61
2023-04-11T05:31:53.640Z,91.31
2023-04-11T05:32:53.662Z,88.46
2023-04-11T05:33:53.796Z,91.07
2023-04-11T05:34:55.266Z,97.52
2023-04-11T05:35:53.686Z,97.82
2023-04-11T05:36:53.651Z,100.33
2023-04-11T05:37:53.646Z,106.95
2023-04-11T05:38:53.706Z,120.58
2023-04-11T05:39:53.649Z,143.06
2023-04-11T05:40:53.652Z,156.55
2023-04-11T05:41:53.659Z,162.61
2023-04-11T05:42:53.682Z,170.65
2023-04-11T05:43:53.908Z,186.19
2023-04-11T05:44:53.692Z,279.23
2023-04-11T05:45:53.794Z,249.24
2023-04-11T05:46:53.701Z,248.48
2023-04-11T05:47:53.872Z,250.00
2023-04-11T05:48:53.793Z,249.40
2023-04-11T05:49:53.699Z,250.00
2023-04-11T05:50:53.702Z,246.13
2023-04-11T05:51:53.704Z,248.07
2023-04-11T05:52:53.699Z,248.89
2023-04-11T05:53:54.028Z,248.66
2023-04-11T05:54:53.972Z,246.69
2023-04-11T05:55:53.744Z,249.10
2023-04-11T05:56:53.742Z,247.67
2023-04-11T05:57:53.724Z,248.56
2023-04-11T05:58:53.713Z,249.82
2023-04-11T05:59:53.719Z,247.08
2023-04-11T06:00:53.719Z,243.77
2023-04-11T06:01:53.787Z,245.29
2023-04-11T06:02:53.761Z,247.87
2023-04-11T06:03:54.137Z,244.72
2023-04-11T06:04:53.764Z,244.55
2023-04-11T06:05:53.756Z,241.43
2023-04-11T06:06:53.702Z,239.54
2023-04-11T06:07:53.692Z,237.01
2023-04-11T06:08:53.693Z,236.14
2023-04-11T06:09:53.766Z,232.00
2023-04-11T06:10:53.697Z,232.72
2023-04-11T06:11:53.679Z,231.84
2023-04-11T06:12:53.697Z,231.06
2023-04-11T06:13:53.747Z,227.47
2023-04-11T06:14:53.702Z,225.39
2023-04-11T06:15:53.743Z,225.23
2023-04-11T06:16:53.702Z,224.00
2023-04-11T06:17:53.738Z,221.31
2023-04-11T06:18:53.694Z,219.64
2023-04-11T06:19:53.689Z,219.50
2023-04-11T06:20:53.692Z,215.38
2023-04-11T06:21:53.680Z,217.02
2023-04-11T06:22:53.703Z,215.96
2023-04-11T06:23:53.917Z,213.90
2023-04-11T06:24:53.688Z,213.04
2023-04-11T06:25:53.717Z,211.47
2023-04-11T06:26:53.689Z,207.83
2023-04-11T06:27:53.694Z,206.65
2023-04-11T06:28:53.733Z,204.97
2023-04-11T06:29:53.735Z,206.03
2023-04-11T06:30:53.733Z,203.73
2023-04-11T06:31:53.702Z,200.54
2023-04-11T06:32:53.761Z,202.02
2023-04-11T06:33:53.741Z,200.93
2023-04-11T06:34:53.754Z,200.11
2023-04-11T06:35:53.841Z,198.64
2023-04-11T06:36:53.845Z,198.39
2023-04-11T06:37:53.708Z,198.55
2023-04-11T06:38:53.715Z,198.49
2023-04-11T06:39:53.736Z,198.51
2023-04-11T06:40:53.704Z,198.50
2023-04-11T06:41:53.787Z,198.46
2023-04-11T06:42:53.713Z,198.52
2023-04-11T06:43:53.757Z,195.67
2023-04-11T06:44:53.837Z,195.59
2023-04-11T06:45:53.690Z,214.45
2023-04-11T06:46:53.725Z,217.36
2023-04-11T06:47:53.714Z,221.99
2023-04-11T06:48:53.663Z,226.76
2023-04-11T06:49:53.663Z,229.41
2023-04-11T06:50:53.633Z,235.34
2023-04-11T06:51:53.636Z,239.50
2023-04-11T06:52:53.703Z,246.22
2023-04-11T06:53:53.787Z,249.71
2023-04-11T06:54:53.638Z,248.95
2023-04-11T06:55:53.604Z,250.08
2023-04-11T06:56:53.650Z,250.28
2023-04-11T06:57:53.571Z,251.52
2023-04-11T06:58:53.564Z,255.96
2023-04-11T06:59:53.568Z,263.21
2023-04-11T07:00:53.559Z,274.01
2023-04-11T07:01:53.596Z,251.20
2023-04-11T07:02:53.639Z,255.57
2023-04-11T07:03:53.793Z,264.25
2023-04-11T07:04:53.571Z,278.27
2023-04-11T07:05:53.509Z,300.55
2023-04-11T07:06:53.598Z,281.35
2023-04-11T07:07:53.561Z,265.80
2023-04-11T07:08:53.498Z,250.99
2023-04-11T07:09:53.496Z,249.77
2023-04-11T07:10:53.475Z,249.97
2023-04-11T07:11:53.467Z,250.86
2023-04-11T07:12:53.453Z,250.20
2023-04-11T07:13:53.663Z,251.86
2023-04-11T07:14:53.529Z,255.25
2023-04-11T07:15:53.467Z,250.48
2023-04-11T07:16:53.415Z,253.06
2023-04-11T07:17:53.451Z,257.99
2023-04-11T07:18:53.446Z,266.86
2023-04-11T07:19:53.398Z,279.03
2023-04-11T07:20:53.378Z,250.94
2023-04-11T07:21:53.389Z,255.26
2023-04-11T07:22:53.446Z,262.80
2023-04-11T07:23:53.590Z,274.23
2023-04-11T07:24:53.327Z,291.23
2023-04-11T07:25:53.334Z,277.38
2023-04-11T07:26:53.344Z,266.48
2023-04-11T07:27:53.295Z,250.77
2023-04-11T07:28:53.327Z,249.93
2023-04-11T07:29:53.291Z,248.08
2023-04-11T07:30:53.310Z,247.03
2023-04-11T07:31:53.362Z,249.18
2023-04-11T07:32:53.288Z,250.00
2023-04-11T07:33:53.326Z,250.00
2023-04-11T07:34:53.309Z,248.76
2023-04-11T07:35:53.395Z,249.84
2023-04-11T07:36:53.365Z,248.62
2023-04-11T07:37:53.392Z,249.00
2023-04-11T07:38:53.531Z,250.00
2023-04-11T07:39:53.466Z,248.68
2023-04-11T07:40:53.471Z,244.95
2023-04-11T07:41:53.456Z,245.09
2023-04-11T07:42:53.470Z,245.04
2023-04-11T07:43:53.458Z,245.17
2023-04-11T07:44:53.423Z,246.12
2023-04-11T07:45:53.472Z,245.83
2023-04-11T07:46:53.453Z,245.14
2023-04-11T07:47:53.445Z,245.56
2023-04-11T07:48:53.401Z,244.98
2023-04-11T07:49:53.924Z,245.94
2023-04-11T07:50:53.401Z,247.21
2023-04-11T07:51:53.388Z,248.90
2023-04-11T07:52:53.361Z,248.96
2023-04-11T07:53:53.421Z,248.92
2023-04-11T07:54:53.386Z,231.01
2023-04-11T07:55:53.358Z,191.33
2023-04-11T07:56:53.373Z,208.46
2023-04-11T07:57:53.350Z,203.78
2023-04-11T07:58:53.415Z,145.23
2023-04-11T07:59:53.339Z,124.34
2023-04-11T08:00:53.401Z,130.42
2023-04-11T08:01:53.462Z,112.12
2023-04-11T08:02:53.586Z,125.93
2023-04-11T08:03:53.373Z,108.00
2023-04-11T08:04:53.462Z,68.98
2023-04-11T08:05:53.299Z,53.90
2023-04-11T08:06:53.286Z,60.11
2023-04-11T08:07:53.297Z,1.13
2023-04-11T08:08:53.286Z,6.49
2023-04-11T08:09:53.313Z,12.65
2023-04-11T08:10:53.320Z,35.14
2023-04-11T08:11:53.351Z,24.04
2023-04-11T08:12:53.311Z,27.78
2023-04-11T08:13:53.345Z,0.00
2023-04-11T08:14:53.342Z,13.07
2023-04-11T08:15:53.344Z,13.77
2023-04-11T08:16:53.400Z,0.00
2023-04-11T08:17:53.426Z,0.00
2023-04-11T08:18:53.353Z,0.00
2023-04-11T08:19:53.361Z,0.00
2023-04-11T08:20:53.377Z,0.00
2023-04-11T08:21:53.385Z,0.00
2023-04-11T08:22:53.393Z,0.00
2023-04-11T08:23:53.432Z,0.00
2023-04-11T08:24:53.434Z,0.00
2023-04-11T08:25:53.477Z,0.00
2023-04-11T08:26:53.554Z,0.00
2023-04-11T08:27:53.478Z,0.00
2023-04-11T08:28:53.501Z,0.00
2023-04-11T08:29:53.527Z,0.00
2023-04-11T08:30:53.604Z,0.00
2023-04-11T08:31:53.577Z,0.00
2023-04-11T08:32:53.633Z,0.00
2023-04-11T08:33:53.597Z,25.40
2023-04-11T08:34:53.646Z,41.09
2023-04-11T08:35:53.634Z,52.96
2023-04-11T08:36:53.698Z,62.59
2023-04-11T08:37:53.674Z,71.59
2023-04-11T08:38:53.738Z,78.81
2023-04-11T08:39:53.796Z,85.59
2023-04-11T08:40:53.856Z,89.58
2023-04-11T08:41:53.886Z,95.72
2023-04-11T08:42:53.921Z,99.86
2023-04-11T08:43:54.490Z,104.02
2023-04-11T08:44:54.029Z,107.50
2023-04-11T08:45:54.101Z,110.59
2023-04-11T08:46:54.118Z,113.71
2023-04-11T08:47:54.261Z,116.94
2023-04-11T08:48:54.133Z,119.80
2023-04-11T08:49:54.297Z,123.23
2023-04-11T08:50:54.190Z,123.03
2023-04-11T08:51:54.201Z,125.06
2023-04-11T08:52:54.260Z,130.98
2023-04-11T08:53:54.511Z,134.71
2023-04-11T08:54:54.263Z,139.00
2023-04-11T08:55:54.263Z,143.96
2023-04-11T08:56:54.332Z,147.69
2023-04-11T08:57:54.277Z,151.56
2023-04-11T08:58:54.264Z,155.59
2023-04-11T08:59:54.462Z,155.82
2023-04-11T09:00:54.443Z,157.11
2023-04-11T09:01:54.322Z,160.70
2023-04-11T09:02:54.296Z,167.37
2023-04-11T09:03:55.193Z,177.71
2023-04-11T09:04:54.278Z,182.38
2023-04-11T09:05:54.244Z,184.93
2023-04-11T09:06:54.223Z,187.84
2023-04-11T09:07:54.221Z,187.99
2023-04-11T09:08:54.218Z,188.56
2023-04-11T09:09:54.201Z,190.67
2023-04-11T09:10:54.198Z,193.65
2023-04-11T09:11:54.211Z,200.36
2023-04-11T09:12:54.191Z,201.62
2023-04-11T09:13:54.520Z,203.35
2023-04-11T09:14:54.193Z,206.45
2023-04-11T09:15:54.204Z,208.73
2023-04-11T09:16:54.167Z,209.45
2023-04-11T09:17:54.175Z,214.75
2023-04-11T09:18:54.218Z,218.59
2023-04-11T09:19:54.139Z,219.57
2023-04-11T09:20:54.113Z,223.09
2023-04-11T09:21:54.132Z,224.61
2023-04-11T09:22:54.104Z,224.31
2023-04-11T09:23:54.186Z,226.56
2023-04-11T09:24:54.066Z,227.39
2023-04-11T09:25:54.074Z,228.34
2023-04-11T09:26:54.054Z,230.18
2023-04-11T09:27:54.061Z,233.31
2023-04-11T09:28:54.299Z,233.85
2023-04-11T09:29:54.093Z,234.87
2023-04-11T09:30:54.151Z,236.39
2023-04-11T09:31:54.133Z,235.49
2023-04-11T09:32:54.219Z,235.21
2023-04-11T09:33:54.309Z,235.70
2023-04-11T09:34:54.197Z,234.38
2023-04-11T09:35:54.293Z,235.25
2023-04-11T09:36:54.440Z,235.14
2023-04-11T09:37:54.363Z,237.03
2023-04-11T09:38:54.295Z,238.54
2023-04-11T09:39:54.353Z,235.41
2023-04-11T09:40:54.350Z,237.41
2023-04-11T09:41:54.381Z,233.82
2023-04-11T09:42:54.871Z,235.18
2023-04-11T09:43:54.627Z,232.90
2023-04-11T09:44:54.396Z,232.69
2023-04-11T09:45:54.921Z,232.20
2023-04-11T09:46:54.507Z,232.20
2023-04-11T09:47:54.431Z,231.74
2023-04-11T09:48:54.383Z,229.74
2023-04-11T09:49:54.353Z,229.38
2023-04-11T09:50:54.363Z,229.75
2023-04-11T09:51:54.362Z,229.91
2023-04-11T09:52:55.934Z,227.07
2023-04-11T09:53:54.632Z,227.26
2023-04-11T09:54:54.321Z,226.83
2023-04-11T09:55:54.312Z,226.45
2023-04-11T09:56:54.304Z,223.71
2023-04-11T09:57:54.311Z,222.83
2023-04-11T09:58:54.530Z,222.45
2023-04-11T09:59:54.270Z,223.19
2023-04-11T10:00:54.438Z,223.21
2023-04-11T10:01:54.527Z,222.94
2023-04-11T10:02:54.515Z,222.42
2023-04-11T10:03:54.431Z,222.73
2023-04-11T10:04:54.249Z,221.91
2023-04-11T10:05:54.271Z,221.77
2023-04-11T10:06:54.219Z,220.68
2023-04-11T10:07:54.204Z,220.24
2023-04-11T10:08:54.565Z,220.18
2023-04-11T10:09:54.183Z,220.07
2023-04-11T10:10:54.184Z,217.39
2023-04-11T10:11:54.188Z,218.06
2023-04-11T10:12:54.159Z,218.92
2023-04-11T10:13:54.434Z,216.18
2023-04-11T10:14:54.162Z,217.71
2023-04-11T10:15:54.286Z,217.91
2023-04-11T10:16:54.247Z,216.15
2023-04-11T10:17:54.315Z,217.25
2023-04-11T10:18:54.315Z,216.85
2023-04-11T10:19:54.360Z,217.04
2023-04-11T10:20:54.337Z,215.49
2023-04-11T10:21:54.556Z,217.06
2023-04-11T10:22:54.373Z,216.13
2023-04-11T10:23:54.429Z,214.37
2023-04-11T10:24:55.053Z,215.38
2023-04-11T10:25:54.311Z,214.28
2023-04-11T10:26:54.309Z,214.62
2023-04-11T10:27:54.301Z,215.09
2023-04-11T10:28:54.255Z,214.12
2023-04-11T10:29:54.296Z,214.74
2023-04-11T10:30:54.264Z,212.97
2023-04-11T10:31:54.294Z,214.19
2023-04-11T10:32:54.275Z,213.26
2023-04-11T10:33:54.561Z,213.83
2023-04-11T10:34:54.312Z,212.22
2023-04-11T10:35:54.370Z,211.70
2023-04-11T10:36:54.394Z,212.14
2023-04-11T10:37:54.439Z,211.35
2023-04-11T10:38:54.612Z,211.79
2023-04-11T10:39:54.538Z,211.20
2023-04-11T10:40:54.574Z,210.19
2023-04-11T10:41:54.654Z,210.25
2023-04-11T10:42:54.585Z,209.43
2023-04-11T10:43:54.568Z,210.42
2023-04-11T10:44:54.685Z,210.45
2023-04-11T10:45:54.556Z,210.24
2023-04-11T10:46:54.713Z,209.00
2023-04-11T10:47:54.582Z,210.27
2023-04-11T10:48:54.551Z,210.29
2023-04-11T10:49:54.565Z,210.29
2023-04-11T10:50:54.537Z,209.85
2023-04-11T10:51:54.562Z,210.13
2023-04-11T10:52:54.528Z,209.00
2023-04-11T10:53:54.601Z,209.02
2023-04-11T10:54:54.525Z,209.02
2023-04-11T10:55:54.499Z,209.14
2023-04-11T10:56:54.524Z,207.48
2023-04-11T10:57:54.499Z,207.72
2023-04-11T10:58:54.467Z,205.57
2023-04-11T10:59:54.505Z,205.13
2023-04-11T11:00:54.523Z,202.57
2023-04-11T11:01:54.551Z,202.76
2023-04-11T11:02:54.563Z,202.25
2023-04-11T11:03:54.646Z,202.26
2023-04-11T11:04:54.576Z,202.40
2023-04-11T11:05:54.416Z,201.93
2023-04-11T11:06:57.196Z,201.97
2023-04-11T11:07:54.417Z,201.61
2023-04-11T11:08:54.411Z,201.66
2023-04-11T11:09:54.386Z,201.36
2023-04-11T11:10:55.370Z,200.84
2023-04-11T11:11:54.386Z,200.88
2023-04-11T11:12:54.379Z,200.75
2023-04-11T11:13:54.543Z,200.81
2023-04-11T11:14:54.371Z,201.06
2023-04-11T11:15:54.364Z,200.87
2023-04-11T11:16:54.441Z,200.52
2023-04-11T11:17:54.412Z,199.28
2023-04-11T11:18:54.366Z,198.83
2023-04-11T11:19:54.422Z,199.32
2023-04-11T11:20:54.365Z,199.01
2023-04-11T11:21:54.336Z,199.07
2023-04-11T11:22:54.363Z,199.13
2023-04-11T11:23:54.632Z,198.08
2023-04-11T11:24:54.337Z,197.87
2023-04-11T11:25:54.315Z,198.09
2023-04-11T11:26:54.322Z,198.17
2023-04-11T11:27:54.492Z,196.61
2023-04-11T11:28:54.500Z,198.22
2023-04-11T11:29:54.315Z,197.06
2023-04-11T11:30:55.649Z,195.62
2023-04-11T11:31:54.298Z,194.57
2023-04-11T11:32:54.305Z,194.86
2023-04-11T11:33:58.245Z,194.88
2023-04-11T11:34:55.339Z,194.94
2023-04-11T11:35:54.312Z,195.28
2023-04-11T11:36:54.287Z,195.57
2023-04-11T11:37:54.259Z,195.59
2023-04-11T11:38:54.480Z,194.75
2023-04-11T11:39:54.276Z,193.73
2023-04-11T11:40:54.245Z,195.08
2023-04-11T11:41:54.252Z,195.54
2023-04-11T11:42:54.238Z,195.36
2023-04-11T11:43:54.416Z,194.55
2023-04-11T11:44:54.214Z,194.68
2023-04-11T11:45:54.409Z,194.28
2023-04-11T11:46:54.281Z,193.21
2023-04-11T11:47:54.375Z,195.17
2023-04-11T11:48:54.418Z,194.30
2023-04-11T11:49:54.498Z,194.77
2023-04-11T11:50:54.451Z,194.87
2023-04-11T11:51:54.503Z,194.04
2023-04-11T11:52:54.574Z,193.63
2023-04-11T11:53:54.596Z,193.96
2023-04-11T11:54:54.595Z,194.00
2023-04-11T11:55:54.600Z,193.70
2023-04-11T11:56:54.632Z,193.18
2023-04-11T11:57:54.581Z,191.82
2023-04-11T11:58:54.620Z,191.79
2023-04-11T11:59:54.726Z,191.30
2023-04-11T12:00:54.576Z,189.73
2023-04-11T12:01:54.570Z,190.15
2023-04-11T12:02:54.864Z,190.62
2023-04-11T12:03:54.607Z,189.28
2023-04-11T12:04:54.689Z,188.40
2023-04-11T12:05:54.507Z,188.39
2023-04-11T12:06:54.578Z,187.66
2023-04-11T12:07:54.685Z,187.73
2023-04-11T12:08:54.632Z,186.50
2023-04-11T12:09:54.686Z,186.31
2023-04-11T12:10:54.737Z,187.02
2023-04-11T12:11:54.785Z,188.21
2023-04-11T12:12:54.824Z,187.10
2023-04-11T12:13:55.105Z,187.21
2023-04-11T12:14:54.912Z,187.28
2023-04-11T12:15:55.098Z,185.62
2023-04-11T12:16:55.010Z,186.03
2023-04-11T12:17:55.112Z,185.10
2023-04-11T12:18:55.091Z,184.02
2023-04-11T12:19:55.104Z,183.34
2023-04-11T12:20:55.091Z,183.06
2023-04-11T12:21:55.046Z,184.19
2023-04-11T12:22:55.388Z,184.51
2023-04-11T12:23:55.281Z,184.20
2023-04-11T12:24:55.033Z,184.38
2023-04-11T12:25:55.016Z,185.07
2023-04-11T12:27:06.360Z,184.27
2023-04-11T12:27:55.984Z,184.29
2023-04-11T12:28:55.224Z,184.04
2023-04-11T12:29:54.951Z,182.72
2023-04-11T12:30:55.044Z,183.19
2023-04-11T12:31:54.943Z,182.28
2023-04-11T12:32:54.986Z,182.87
2023-04-11T12:33:55.021Z,180.97
2023-04-11T12:34:54.885Z,181.38
2023-04-11T12:35:54.864Z,182.14
2023-04-11T12:36:54.870Z,182.18